Time;durP1;ratioP1;P1;durP2;ratioP2;P2;SDS_P1;SDS_P2;PMS_P1;PMS_P2;Temp;Humidity;BMP_temperature;BMP_pressure;BME280_temperature;BME280_humidity;BME280_pressure;Samples;Min_cycle;Max_cycle;Signal;HPM_P1;HPM_P2
2021/09/29 00:01:23;;;;;;;3.85;1.50;;;;;;;13.55;73.64;101441.09;5054411;28;20037;-41
2021/09/29 00:03:48;;;;;;;3.97;1.45;;;;;;;13.59;73.61;101427.00;5054382;28;20033;-41
2021/09/29 00:06:14;;;;;;;3.25;1.63;;;;;;;13.54;73.69;101418.63;5047949;28;20465;-41
2021/09/29 00:08:39;;;;;;;3.47;1.45;;;;;;;13.52;73.97;101425.25;5050590;28;20405;-41
2021/09/29 00:11:04;;;;;;;3.75;1.45;;;;;;;13.54;74.13;101428.59;5035843;28;20037;-41
2021/09/29 00:13:30;;;;;;;5.63;1.95;;;;;;;13.50;73.66;101408.38;5054037;28;20103;-41
2021/09/29 00:15:56;;;;;;;3.72;1.20;;;;;;;13.48;73.89;101413.09;5049404;28;20215;-41
2021/09/29 00:18:22;;;;;;;1.67;1.50;;;;;;;13.42;73.91;101414.69;5049316;28;20033;-41
2021/09/29 00:20:48;;;;;;;3.78;1.70;;;;;;;13.38;74.19;101403.44;5052742;28;20119;-41
2021/09/29 00:23:13;;;;;;;3.45;1.50;;;;;;;13.36;74.17;101404.63;5050685;28;20079;-41
2021/09/29 00:25:38;;;;;;;4.07;1.50;;;;;;;13.38;74.03;101386.38;5034232;28;20025;-42
2021/09/29 00:28:04;;;;;;;3.00;1.77;;;;;;;13.37;74.11;101388.22;5053788;28;20024;-41
2021/09/29 00:33:18;;;;;;;2.63;1.40;;;;;;;13.32;74.33;101379.84;5033605;28;20048;-40
2021/09/29 00:35:44;;;;;;;5.05;1.40;;;;;;;13.29;74.43;101372.09;5035731;28;20033;-41
2021/09/29 00:38:09;;;;;;;4.72;1.70;;;;;;;13.26;74.42;101380.59;5051663;28;20051;-41
2021/09/29 00:40:34;;;;;;;4.80;1.65;;;;;;;13.27;74.53;101384.97;5050302;28;20044;-41
2021/09/29 00:43:00;;;;;;;4.43;1.70;;;;;;;13.22;74.73;101364.88;5053188;28;20059;-41
2021/09/29 00:45:25;;;;;;;4.35;1.90;;;;;;;13.18;74.73;101354.44;5052158;28;20029;-40
2021/09/29 00:47:50;;;;;;;3.90;1.77;;;;;;;13.21;74.59;101353.25;5034087;28;20045;-42
2021/09/29 00:50:15;;;;;;;4.75;1.65;;;;;;;13.22;74.88;101357.63;5046807;28;20037;-40
2021/09/29 00:52:41;;;;;;;4.65;1.90;;;;;;;13.16;74.83;101358.38;5033547;28;20108;-39
2021/09/29 00:55:09;;;;;;;5.07;1.73;;;;;;;13.14;74.80;101353.16;5032279;28;20113;-39
2021/09/29 00:57:35;;;;;;;8.65;2.58;;;;;;;13.15;74.83;101349.41;5050395;28;20111;-40
2021/09/29 01:00:00;;;;;;;6.40;2.20;;;;;;;13.21;74.63;101342.44;5041283;28;20107;-40
2021/09/29 01:02:26;;;;;;;4.43;1.90;;;;;;;13.15;74.75;101341.31;5037178;28;20029;-39
2021/09/29 01:04:51;;;;;;;3.65;1.90;;;;;;;13.11;74.84;101340.03;5045430;28;20030;-41
2021/09/29 01:07:18;;;;;;;3.55;1.77;;;;;;;13.21;74.43;101331.63;5036620;28;20029;-40
2021/09/29 01:10:04;;;;;;;4.47;1.83;;;;;;;13.16;74.53;101334.03;5037021;28;20029;-40
2021/09/29 01:12:42;;;;;;;5.50;1.83;;;;;;;13.20;74.50;101326.41;5033112;28;20375;-40
2021/09/29 01:15:10;;;;;;;3.05;1.83;;;;;;;13.20;74.73;101324.53;5015268;28;20029;-40
2021/09/29 01:17:40;;;;;;;5.57;1.80;;;;;;;13.23;74.70;101318.75;5031067;28;20546;-40
2021/09/29 01:20:08;;;;;;;3.10;1.60;;;;;;;13.24;74.31;101315.03;5036454;28;20124;-39
2021/09/29 01:22:50;;;;;;;5.97;1.88;;;;;;;13.26;74.57;101307.59;5033143;28;20041;-40
2021/09/29 01:25:28;;;;;;;6.72;2.15;;;;;;;13.29;74.61;101317.19;5032191;28;20037;-40
2021/09/29 01:27:54;;;;;;;4.70;1.88;;;;;;;13.31;74.43;101307.88;5036462;28;20041;-40
2021/09/29 01:30:20;;;;;;;4.97;2.05;;;;;;;13.26;74.59;101301.31;5037277;28;20084;-40
2021/09/29 01:32:45;;;;;;;7.57;2.38;;;;;;;13.26;74.75;101299.50;5032516;28;20056;-40
2021/09/29 01:35:11;;;;;;;7.00;2.60;;;;;;;13.25;74.53;101289.69;5047826;28;20037;-39
2021/09/29 01:37:36;;;;;;;5.50;1.92;;;;;;;13.28;74.39;101283.94;5032742;28;20041;-40
2021/09/29 01:40:02;;;;;;;3.28;1.88;;;;;;;13.28;74.63;101277.69;5039784;28;20556;-40
2021/09/29 01:42:28;;;;;;;6.53;2.17;;;;;;;13.26;74.18;101280.56;5032796;28;20037;-38
2021/09/29 01:44:53;;;;;;;5.93;1.80;;;;;;;13.27;74.01;101276.84;5044934;28;20022;-40
2021/09/29 01:47:19;;;;;;;5.65;1.80;;;;;;;13.31;74.16;101270.03;5045751;28;20416;-40
2021/09/29 01:49:47;;;;;;;3.30;1.63;;;;;;;13.29;74.33;101269.38;5023139;28;20029;-40
2021/09/29 01:52:15;;;;;;;2.90;1.80;;;;;;;13.23;74.55;101266.56;5051154;28;20518;-40
2021/09/29 01:54:46;;;;;;;4.18;2.00;;;;;;;13.22;74.53;101257.63;5051547;28;20032;-40
2021/09/29 01:57:11;;;;;;;5.60;1.92;;;;;;;13.20;74.75;101270.50;5039122;28;20109;-39
2021/09/29 01:59:38;;;;;;;3.63;1.73;;;;;;;13.18;74.71;101261.72;5040107;28;20033;-40
2021/09/29 02:02:04;;;;;;;3.67;1.90;;;;;;;13.18;74.71;101261.72;5038887;28;20440;-40
2021/09/29 02:04:30;;;;;;;7.13;2.17;;;;;;;13.19;74.69;101252.56;5052799;28;20044;-39
2021/09/29 02:06:56;;;;;;;6.18;2.25;;;;;;;13.21;74.39;101249.69;5040361;28;20076;-40
2021/09/29 02:09:27;;;;;;;4.88;2.28;;;;;;;13.28;74.36;101248.78;5038711;28;20033;-40
2021/09/29 02:11:54;;;;;;;7.80;2.40;;;;;;;13.26;74.30;101245.44;5039678;28;20112;-40
2021/09/29 02:14:21;;;;;;;6.05;2.08;;;;;;;13.27;73.81;101244.41;5032458;28;20022;-40
2021/09/29 02:16:48;;;;;;;3.83;1.83;;;;;;;13.29;73.56;101228.81;5045992;28;20029;-40
2021/09/29 02:19:14;;;;;;;5.57;1.98;;;;;;;13.32;73.68;101241.13;5051820;28;20025;-40
2021/09/29 02:21:42;;;;;;;5.07;1.80;;;;;;;13.35;73.71;101230.78;5046916;28;20029;-40
2021/09/29 02:24:08;;;;;;;5.70;2.17;;;;;;;13.39;73.21;101226.66;5032293;28;20091;-40
2021/09/29 02:26:34;;;;;;;5.50;1.83;;;;;;;13.42;73.04;101235.41;5043265;28;20033;-40
2021/09/29 02:29:00;;;;;;;5.10;2.08;;;;;;;13.42;73.27;101230.84;5051651;28;20379;-41
2021/09/29 02:31:26;;;;;;;5.07;2.00;;;;;;;13.44;73.07;101230.66;5034592;28;20046;-41
2021/09/29 02:33:52;;;;;;;4.40;2.00;;;;;;;13.41;72.86;101236.47;5048122;28;20017;-41
2021/09/29 02:36:17;;;;;;;6.20;2.28;;;;;;;13.43;73.15;101226.28;5042166;28;20039;-41
2021/09/29 02:38:43;;;;;;;7.13;2.47;;;;;;;13.45;73.13;101229.63;5034380;28;20458;-41
2021/09/29 02:41:12;;;;;;;3.67;1.98;;;;;;;13.46;72.79;101215.09;5052239;28;20025;-41
2021/09/29 02:43:37;;;;;;;5.63;2.13;;;;;;;13.54;72.41;101228.50;5037503;28;20439;-40
2021/09/29 02:46:03;;;;;;;10.55;2.20;;;;;;;13.57;72.71;101228.09;5041679;28;20025;-40
2021/09/29 02:48:28;;;;;;;5.68;2.10;;;;;;;13.56;73.96;101234.53;5047058;28;20325;-40
2021/09/29 02:50:54;;;;;;;4.43;1.63;;;;;;;13.52;74.49;101227.84;5035867;28;20488;-40
2021/09/29 02:53:20;;;;;;;8.70;1.98;;;;;;;13.47;73.75;101224.88;5035506;28;20072;-40
2021/09/29 02:55:45;;;;;;;5.93;2.67;;;;;;;13.42;76.12;101227.31;5036857;28;20477;-41
2021/09/29 02:58:11;;;;;;;7.32;2.00;;;;;;;13.28;77.81;101237.97;5051485;28;20041;-39
2021/09/29 03:00:36;;;;;;;7.13;2.00;;;;;;;13.16;78.33;101220.53;5036170;28;20025;-40
2021/09/29 03:03:02;;;;;;;4.97;2.03;;;;;;;13.07;79.00;101217.13;5035772;28;20021;-40
2021/09/29 03:05:27;;;;;;;6.15;2.30;;;;;;;13.01;80.01;101211.63;5038462;28;20051;-41
2021/09/29 03:07:52;;;;;;;4.75;2.63;;;;;;;12.93;80.17;101218.81;5055443;28;20119;-40
2021/09/29 03:10:18;;;;;;;7.97;1.77;;;;;;;12.93;80.39;101208.00;5040816;28;20025;-40
2021/09/29 03:12:43;;;;;;;6.47;2.00;;;;;;;12.88;81.29;101213.13;5052768;28;20041;-40
2021/09/29 03:15:09;;;;;;;5.15;1.95;;;;;;;12.81;81.71;101217.59;5055247;28;20116;-40
2021/09/29 03:17:34;;;;;;;7.30;2.20;;;;;;;12.72;81.71;101214.19;5053051;28;20033;-40
2021/09/29 03:19:59;;;;;;;7.25;1.95;;;;;;;12.72;82.43;101213.34;5040711;28;20376;-40
2021/09/29 03:22:25;;;;;;;7.97;2.40;;;;;;;12.71;82.56;101204.38;5035101;28;20091;-41
2021/09/29 03:24:50;;;;;;;4.88;2.17;;;;;;;12.70;83.19;101209.97;5035130;28;20116;-41
2021/09/29 03:27:16;;;;;;;6.25;2.25;;;;;;;12.62;83.31;101201.97;5050236;28;20053;-41
2021/09/29 03:29:41;;;;;;;11.15;1.95;;;;;;;12.59;83.46;101197.78;5043922;28;20041;-41
2021/09/29 03:32:07;;;;;;;4.80;2.05;;;;;;;12.57;84.51;101185.50;5035151;28;20021;-42
2021/09/29 03:34:32;;;;;;;6.55;2.00;;;;;;;12.52;85.13;101197.69;5034979;28;20524;-41
2021/09/29 03:36:57;;;;;;;8.80;3.03;;;;;;;12.47;85.35;101194.69;5050207;28;20112;-44
2021/09/29 03:39:23;;;;;;;11.80;2.40;;;;;;;12.43;85.20;101192.59;5046948;28;20488;-43
2021/09/29 03:41:48;;;;;;;5.57;1.90;;;;;;;12.42;85.45;101185.50;5047393;28;20037;-43
2021/09/29 03:44:13;;;;;;;8.02;1.95;;;;;;;12.44;85.48;101183.44;5054766;28;20112;-42
2021/09/29 03:46:39;;;;;;;6.35;2.35;;;;;;;12.41;85.15;101178.44;5044213;28;20139;-40
2021/09/29 03:49:05;;;;;;;8.63;2.55;;;;;;;12.41;84.95;101183.81;5048432;28;20066;-42
2021/09/29 03:51:31;;;;;;;10.07;2.40;;;;;;;12.43;85.28;101182.63;5035865;28;20060;-41
2021/09/29 03:53:56;;;;;;;6.95;2.00;;;;;;;12.40;84.83;101174.91;5045536;28;20547;-41
2021/09/29 03:56:22;;;;;;;10.02;1.90;;;;;;;12.45;84.50;101169.78;5052245;28;20040;-41
2021/09/29 03:58:47;;;;;;;7.65;2.10;;;;;;;12.44;84.79;101169.94;5049373;28;20082;-41
2021/09/29 04:01:13;;;;;;;12.48;2.05;;;;;;;12.42;83.95;101178.22;5042798;28;20025;-41
2021/09/29 04:03:38;;;;;;;7.03;2.00;;;;;;;12.42;84.75;101164.72;5054221;28;20028;-42
2021/09/29 04:06:03;;;;;;;8.25;2.45;;;;;;;12.43;84.47;101171.81;5051815;28;20044;-41
2021/09/29 04:08:29;;;;;;;4.40;1.80;;;;;;;12.43;84.53;101166.41;5051869;28;20045;-41
2021/09/29 04:10:56;;;;;;;7.60;1.90;;;;;;;12.48;84.34;101165.84;5034364;28;20423;-41
2021/09/29 04:13:21;;;;;;;5.53;1.77;;;;;;;12.56;84.74;101159.50;5032856;28;20025;-41
2021/09/29 04:15:47;;;;;;;8.15;2.33;;;;;;;12.54;84.29;101159.72;5034244;28;20044;-41
2021/09/29 04:18:12;;;;;;;7.15;1.90;;;;;;;12.53;84.19;101152.63;5039289;28;20113;-40
2021/09/29 04:20:39;;;;;;;7.75;2.15;;;;;;;12.52;84.38;101151.78;5031159;28;20484;-41
2021/09/29 04:23:06;;;;;;;3.75;1.60;;;;;;;12.52;84.37;101148.25;5029325;28;20034;-39
2021/09/29 04:25:31;;;;;;;4.82;1.73;;;;;;;12.54;83.94;101148.91;5012948;28;20057;-40
2021/09/29 04:27:56;;;;;;;4.40;1.33;;;;;;;12.55;83.30;101155.16;5045979;28;20115;-41
2021/09/29 04:30:22;;;;;;;7.32;1.73;;;;;;;12.58;82.96;101143.97;5050360;28;20057;-41
2021/09/29 04:32:48;;;;;;;5.53;1.73;;;;;;;12.59;83.23;101142.97;5034038;28;20037;-41
2021/09/29 04:35:13;;;;;;;4.10;1.77;;;;;;;12.66;82.84;101144.69;5034398;28;20082;-42
2021/09/29 04:37:39;;;;;;;6.82;1.60;;;;;;;12.66;82.73;101133.88;5041234;28;20102;-42
2021/09/29 04:40:05;;;;;;;7.28;1.75;;;;;;;12.68;83.02;101137.25;5033951;28;20021;-42
2021/09/29 04:42:31;;;;;;;7.60;1.67;;;;;;;12.71;82.77;101130.63;5049939;28;20525;-42
2021/09/29 04:44:56;;;;;;;10.82;2.25;;;;;;;12.66;82.49;101127.66;5042049;28;20116;-43
2021/09/29 04:47:21;;;;;;;6.30;1.85;;;;;;;12.65;82.33;101136.78;5041534;28;20049;-40
2021/09/29 04:49:47;;;;;;;6.57;1.92;;;;;;;12.68;82.81;101136.41;5040274;28;20033;-40
2021/09/29 04:52:12;;;;;;;6.35;1.70;;;;;;;12.69;82.16;101132.69;5040672;28;20074;-40
2021/09/29 04:54:37;;;;;;;8.05;2.03;;;;;;;12.68;82.22;101122.91;5051389;28;20115;-40
2021/09/29 04:57:03;;;;;;;7.82;2.33;;;;;;;12.67;81.66;101121.25;5050628;28;20044;-40
2021/09/29 04:59:29;;;;;;;3.75;1.42;;;;;;;12.68;81.97;101128.31;5037407;28;20053;-40
2021/09/29 05:01:54;;;;;;;10.85;1.70;;;;;;;12.65;81.63;101131.41;5034704;28;20108;-40
2021/09/29 05:04:24;;;;;;;5.78;2.10;;;;;;;12.65;81.82;101126.00;5035062;28;20123;-40
2021/09/29 05:06:50;;;;;;;6.38;1.85;;;;;;;12.64;81.70;101125.16;5048890;28;20120;-40
2021/09/29 05:09:15;;;;;;;9.93;1.88;;;;;;;12.64;81.59;101135.13;5032417;28;20388;-40
2021/09/29 05:11:45;;;;;;;9.32;2.50;;;;;;;12.66;82.09;101127.66;5034240;28;20030;-40
2021/09/29 05:14:10;;;;;;;6.80;1.70;;;;;;;12.65;82.01;101131.41;5031247;28;20068;-41
2021/09/29 05:18:42;;;;;;;5.80;1.65;;;;;;;12.64;81.75;101127.03;5068345;28;20406;-41
2021/09/29 05:21:07;;;;;;;7.88;1.40;;;;;;;12.65;81.93;101126.81;5069967;28;20041;-41
2021/09/29 05:23:33;;;;;;;5.93;1.52;;;;;;;12.67;81.61;101137.44;5069710;28;20040;-41
2021/09/29 05:25:59;;;;;;;7.32;1.48;;;;;;;12.65;81.85;101134.94;5068883;28;20112;-42
2021/09/29 05:28:37;;;;;;;4.43;1.60;;;;;;;12.62;81.89;101134.47;5067211;28;20090;-42
2021/09/29 05:31:03;;;;;;;7.38;1.60;;;;;;;12.59;81.92;101138.38;5066593;28;20028;-42
2021/09/29 05:33:29;;;;;;;6.05;1.60;;;;;;;12.56;82.51;101138.78;5058370;28;20144;-42
2021/09/29 05:35:55;;;;;;;5.38;1.65;;;;;;;12.52;82.36;101143.69;5044602;28;20045;-42
2021/09/29 05:38:20;;;;;;;7.85;1.90;;;;;;;12.52;82.75;101140.16;5047803;28;20036;-41
2021/09/29 05:40:46;;;;;;;3.58;1.17;;;;;;;12.52;82.76;101132.88;5048381;28;20037;-41
2021/09/29 05:43:12;;;;;;;6.53;1.95;;;;;;;12.56;82.59;101137.91;5048769;28;20036;-41
2021/09/29 05:45:37;;;;;;;6.22;1.85;;;;;;;12.54;82.55;101145.38;5048011;28;20025;-42
2021/09/29 05:48:12;;;;;;;7.90;1.77;;;;;;;12.56;82.68;101135.22;5048462;28;20067;-43
2021/09/29 05:50:37;;;;;;;4.88;1.60;;;;;;;12.59;82.02;101133.00;5046568;28;20053;-42
2021/09/29 05:53:03;;;;;;;4.75;1.45;;;;;;;12.57;82.40;101128.81;5044481;28;20060;-43
2021/09/29 05:55:29;;;;;;;3.20;1.23;;;;;;;12.56;82.11;101135.22;5048299;28;20349;-41
2021/09/29 05:57:54;;;;;;;3.13;1.40;;;;;;;12.56;82.27;101135.22;5047090;28;20040;-42
2021/09/29 06:00:19;;;;;;;3.60;1.40;;;;;;;12.51;82.55;101135.78;5047272;28;20112;-43
2021/09/29 06:02:45;;;;;;;4.63;1.50;;;;;;;12.53;83.04;101139.13;5046344;28;20036;-42
2021/09/29 06:05:10;;;;;;;3.58;1.23;;;;;;;12.50;82.99;101128.69;5046886;28;20033;-42
2021/09/29 06:07:36;;;;;;;4.13;1.40;;;;;;;12.48;83.18;101130.75;5048477;28;20048;-42
2021/09/29 06:10:04;;;;;;;4.63;1.27;;;;;;;12.48;83.36;101131.59;5048420;28;20025;-42
2021/09/29 06:12:29;;;;;;;5.88;1.50;;;;;;;12.48;83.42;101130.75;5046467;28;20112;-42
2021/09/29 06:14:55;;;;;;;7.50;1.95;;;;;;;12.52;83.87;101134.75;5047575;28;20108;-42
2021/09/29 06:17:22;;;;;;;3.58;1.27;;;;;;;12.54;83.73;101146.22;5047832;28;20041;-42
2021/09/29 06:19:48;;;;;;;5.82;2.03;;;;;;;12.49;84.04;101145.94;5047635;28;20467;-42
2021/09/29 06:22:14;;;;;;;3.53;1.33;;;;;;;12.54;83.89;101143.50;5047692;28;20048;-42
2021/09/29 06:24:39;;;;;;;3.17;1.63;;;;;;;12.52;84.27;101153.66;5047561;28;20055;-42
2021/09/29 06:27:05;;;;;;;2.65;1.20;;;;;;;12.51;84.68;101160.94;5047382;28;20476;-42
2021/09/29 06:29:30;;;;;;;6.80;1.85;;;;;;;12.47;85.03;101151.50;5036409;28;20037;-42
2021/09/29 06:31:58;;;;;;;7.65;1.45;;;;;;;12.50;85.11;101147.59;5034410;28;20451;-42
2021/09/29 06:34:24;;;;;;;7.32;1.30;;;;;;;12.49;85.48;101154.88;5032660;28;20140;-42
2021/09/29 06:36:49;;;;;;;3.30;1.20;;;;;;;12.50;85.89;101170.03;5034039;28;20116;-42
2021/09/29 06:39:15;;;;;;;5.60;1.38;;;;;;;12.49;85.59;101165.66;4994779;28;20379;-41
2021/09/29 06:41:44;;;;;;;2.30;1.00;;;;;;;12.47;85.26;101161.47;5034572;28;20403;-41
2021/09/29 06:44:10;;;;;;;5.75;1.08;;;;;;;12.50;84.50;101166.50;5032284;28;20029;-41
2021/09/29 06:46:35;;;;;;;5.30;0.90;;;;;;;12.47;84.45;101162.31;5033492;28;20029;-42
2021/09/29 06:49:01;;;;;;;6.50;0.90;;;;;;;12.45;84.64;101160.81;5033553;28;20035;-42
2021/09/29 06:51:26;;;;;;;3.28;1.00;;;;;;;12.40;85.13;101165.94;5034085;28;20029;-42
2021/09/29 06:53:52;;;;;;;6.97;1.00;;;;;;;12.37;86.26;101156.34;5034040;28;20034;-43
2021/09/29 06:56:20;;;;;;;4.18;0.82;;;;;;;12.33;86.52;101165.03;5033924;28;21314;-43
2021/09/29 06:58:46;;;;;;;6.10;1.00;;;;;;;12.26;87.14;101159.50;5034802;28;20108;-42
2021/09/29 07:01:11;;;;;;;7.93;1.30;;;;;;;12.28;87.96;101169.09;5034479;28;20338;-42
2021/09/29 07:03:37;;;;;;;3.95;1.00;;;;;;;12.21;88.08;101167.31;5034655;28;20087;-42
2021/09/29 07:06:02;;;;;;;7.82;1.55;;;;;;;12.16;88.79;101186.75;5034834;28;20061;-43
2021/09/29 07:08:27;;;;;;;5.47;1.40;;;;;;;12.15;89.47;101192.34;5034267;28;20038;-43
2021/09/29 07:10:53;;;;;;;6.97;1.10;;;;;;;12.07;89.33;101194.09;5031717;28;20029;-45
2021/09/29 07:13:19;;;;;;;5.43;1.40;;;;;;;12.06;89.29;101199.69;5034084;28;20083;-44
2021/09/29 07:15:44;;;;;;;4.30;1.15;;;;;;;12.03;89.46;101210.84;5033724;28;20029;-45
2021/09/29 07:18:10;;;;;;;6.45;1.20;;;;;;;11.95;89.91;101200.13;5030476;28;20468;-42
2021/09/29 07:20:36;;;;;;;6.80;0.85;;;;;;;11.79;89.37;101201.91;5033806;28;20430;-43
2021/09/29 07:23:05;;;;;;;10.50;1.38;;;;;;;11.62;89.47;101193.13;5033566;28;20029;-43
2021/09/29 07:25:30;;;;;;;2.47;0.63;;;;;;;11.48;88.78;101184.94;5033421;28;20021;-42
2021/09/29 07:27:57;;;;;;;2.78;0.73;;;;;;;11.27;89.48;101202.63;5033004;28;20517;-42
2021/09/29 07:30:22;;;;;;;1.85;0.80;;;;;;;11.13;90.31;101200.66;5033666;28;20032;-43
2021/09/29 07:32:51;;;;;;;11.82;1.60;;;;;;;11.10;91.26;101212.63;5031533;28;20026;-42
2021/09/29 07:35:16;;;;;;;4.40;1.60;;;;;;;11.10;91.90;101204.56;5033342;28;20083;-43
2021/09/29 07:37:42;;;;;;;3.65;1.30;;;;;;;11.11;92.32;101216.16;5039339;28;20029;-44
2021/09/29 07:40:08;;;;;;;3.40;1.60;;;;;;;11.14;92.57;101213.16;5034096;28;20361;-44
2021/09/29 07:42:33;;;;;;;3.42;1.10;;;;;;;11.14;92.71;101213.97;5033279;28;20021;-43
2021/09/29 07:44:59;;;;;;;7.78;1.48;;;;;;;11.18;92.93;101207.19;5033190;28;20040;-45
2021/09/29 07:47:25;;;;;;;6.53;1.63;;;;;;;11.18;92.85;101200.97;5033053;28;20037;-44
2021/09/29 07:49:51;;;;;;;6.15;1.50;;;;;;;11.23;93.03;101205.84;5032966;28;20027;-47
2021/09/29 07:52:16;;;;;;;7.43;1.80;;;;;;;11.23;92.83;101219.31;5031398;28;20511;-46
2021/09/29 07:54:41;;;;;;;5.60;1.40;;;;;;;11.17;92.78;101223.56;5033408;28;20103;-44
2021/09/29 07:57:07;;;;;;;11.15;1.50;;;;;;;11.12;92.53;101242.94;5032431;28;20095;-44
2021/09/29 07:59:32;;;;;;;2.60;0.50;;;;;;;10.94;91.00;101218.94;5032899;28;20026;-43
2021/09/29 08:01:57;;;;;;;3.72;1.00;;;;;;;10.91;90.92;101223.84;5032941;28;20025;-45
2021/09/29 08:04:23;;;;;;;1.30;0.90;;;;;;;10.93;91.52;101221.84;5033781;28;20029;-44
2021/09/29 08:06:49;;;;;;;1.00;0.60;;;;;;;10.91;91.57;101229.25;5032603;28;20033;-44
2021/09/29 08:09:14;;;;;;;3.40;0.80;;;;;;;10.93;92.09;101229.91;5032337;28;20120;-46
2021/09/29 08:11:40;;;;;;;3.05;0.88;;;;;;;10.96;92.19;101230.38;5031276;28;20030;-46
2021/09/29 08:14:05;;;;;;;5.15;1.20;;;;;;;10.98;92.18;101225.69;5030263;28;20029;-46
2021/09/29 08:16:30;;;;;;;2.88;0.80;;;;;;;11.00;92.33;101220.09;5031388;28;20029;-45
2021/09/29 08:18:56;;;;;;;5.75;1.30;;;;;;;11.05;92.50;101209.63;5033242;28;20079;-45
2021/09/29 08:21:29;;;;;;;4.40;0.90;;;;;;;11.10;92.20;101222.59;5032369;28;20353;-44
2021/09/29 08:24:01;;;;;;;6.28;1.10;;;;;;;11.14;92.00;101223.91;5032604;28;20029;-43
2021/09/29 08:29:19;;;;;;;5.88;0.90;;;;;;;11.21;91.63;101241.88;5032545;28;20381;-43
2021/09/29 08:40:13;;;;;;;7.22;1.33;;;;;;;11.45;91.86;101233.84;5030591;28;20095;-42
2021/09/29 08:45:03;;;;;;;5.30;1.85;;;;;;;11.58;92.18;101237.59;5030647;28;20037;-42
2021/09/29 08:47:38;;;;;;;10.43;1.80;;;;;;;11.67;92.22;101241.09;5032398;28;20040;-42
2021/09/29 09:16:40;;;;;;;3.25;0.80;;;;;;;11.70;89.92;101278.50;5031756;28;20111;-47
2021/09/29 09:19:09;;;;;;;7.43;1.20;;;;;;;11.69;90.16;101271.44;5031573;28;20476;-45
2021/09/29 09:21:38;;;;;;;2.78;1.05;;;;;;;11.70;90.41;101277.66;5031517;28;20025;-42
2021/09/29 09:24:14;;;;;;;5.75;1.15;;;;;;;11.71;90.75;101276.63;5030765;28;20025;-42
2021/09/29 09:26:39;;;;;;;5.55;1.15;;;;;;;11.69;90.98;101289.44;5031546;28;20542;-42
2021/09/29 09:29:07;;;;;;;4.32;0.88;;;;;;;11.70;90.10;101288.44;5031772;28;20113;-41
2021/09/29 09:31:33;;;;;;;2.05;0.93;;;;;;;11.74;89.52;101296.00;5031876;28;20033;-41
2021/09/29 09:34:05;;;;;;;7.93;2.33;;;;;;;11.80;89.89;101295.28;5020966;28;20033;-41
2021/09/29 09:36:39;;;;;;;5.22;1.80;;;;;;;11.86;89.18;101293.75;5021070;28;20030;-40
2021/09/29 09:39:08;;;;;;;5.25;1.40;;;;;;;12.00;86.65;101292.13;5029366;28;20068;-42
2021/09/29 09:41:34;;;;;;;4.70;1.08;;;;;;;12.12;84.60;101301.50;5031391;28;20036;-41
2021/09/29 09:44:02;;;;;;;8.65;1.50;;;;;;;12.16;85.90;101300.09;5025219;28;20030;-41
2021/09/29 09:46:28;;;;;;;;;;;;;;;12.23;85.15;101300.22;5031105;28;20488;-41
2021/09/29 09:49:05;;;;;;;9.07;1.48;;;;;;;12.26;82.26;101302.53;5031883;28;19984;-40
2021/09/29 09:51:33;;;;;;;10.15;1.20;;;;;;;12.30;82.86;101293.06;5031384;28;20105;-41
2021/09/29 09:53:59;;;;;;;3.63;0.93;;;;;;;12.24;85.54;101309.97;5029696;28;20030;-40
2021/09/29 09:56:27;;;;;;;4.38;1.20;;;;;;;12.26;83.04;101302.53;5030963;28;20083;-42
2021/09/29 09:58:57;;;;;;;4.30;0.95;;;;;;;12.29;80.31;101294.09;5031199;28;20026;-41
2021/09/29 10:01:23;;;;;;;2.92;1.00;;;;;;;12.33;80.73;101311.59;5027380;28;20104;-41
2021/09/29 10:03:51;;;;;;;3.33;0.90;;;;;;;12.34;82.72;101324.06;5030286;28;20709;-41
2021/09/29 10:06:17;;;;;;;5.45;1.20;;;;;;;12.41;80.51;101324.19;5033507;28;20024;-41
2021/09/29 10:09:10;;;;;;;9.20;2.25;;;;;;;12.46;80.32;101325.31;5035054;28;20032;-42
2021/09/29 10:11:35;;;;;;;4.72;1.30;;;;;;;12.59;80.52;101335.50;5034587;28;20075;-42
2021/09/29 10:14:27;;;;;;;9.02;1.27;;;;;;;12.69;78.40;101333.38;5035509;28;20055;-41
2021/09/29 10:23:40;;;;;;;15.23;1.52;;;;;;;12.88;76.87;101358.19;5034122;28;20060;-41
2021/09/29 10:28:13;;;;;;;3.97;1.35;;;;;;;13.17;74.01;101376.28;5034146;28;20503;-41
2021/09/29 10:33:13;;;;;;;4.05;0.88;;;;;;;13.37;71.24;101368.47;5034542;28;20048;-42
2021/09/29 10:44:24;;;;;;;4.55;1.20;;;;;;;13.70;71.74;101379.72;5034644;28;20060;-42
2021/09/29 10:46:29;;;;;;;2.53;1.20;;;;;;;13.81;70.56;101392.75;5028712;28;20056;-41
2021/09/29 11:08:32;;;;;;;5.13;1.00;;;;;;;14.39;70.74;101416.28;5034032;28;20048;-42
2021/09/29 11:28:35;;;;;;;4.47;0.75;;;;;;;15.45;62.90;101444.25;5033675;28;20128;-41
2021/09/29 11:31:25;;;;;;;3.70;0.70;;;;;;;15.77;62.03;101447.38;5032659;28;20095;-42
2021/09/29 11:33:39;;;;;;;2.08;0.90;;;;;;;16.04;59.29;101447.53;5033170;28;20220;-42
2021/09/29 11:39:38;;;;;;;4.03;0.70;;;;;;;15.61;59.47;101464.81;5033405;28;20061;-42
2021/09/29 11:50:11;;;;;;;1.65;0.47;;;;;;;16.07;58.55;101466.13;5033952;28;20060;-43
2021/09/29 12:16:29;;;;;;;1.77;0.70;;;;;;;16.58;53.96;101493.63;5032798;28;20128;-41
2021/09/29 12:19:10;;;;;;;5.10;1.45;;;;;;;16.72;56.46;101516.25;5032903;28;20029;-39
2021/09/29 12:21:48;;;;;;;5.05;1.13;;;;;;;16.93;55.63;101519.84;5033170;28;20052;-42
2021/09/29 12:24:29;;;;;;;6.95;1.02;;;;;;;17.10;54.31;101538.28;5032953;28;20411;-43
2021/09/29 12:26:57;;;;;;;7.60;1.10;;;;;;;17.59;50.63;101528.00;5032421;28;20072;-42
2021/09/29 12:29:32;;;;;;;;;;;;;;;17.64;51.21;101540.97;5033125;28;20026;-42
2021/09/29 12:35:15;;;;;;;4.93;1.45;;;;;;;16.73;52.37;101541.53;5032959;28;20099;-42
2021/09/29 12:37:52;;;;;;;5.10;1.00;;;;;;;16.88;53.39;101548.50;5031385;28;20029;-42
2021/09/29 12:40:18;;;;;;;3.03;0.60;;;;;;;16.83;55.52;101559.16;5031240;28;20494;-41
2021/09/29 12:42:43;;;;;;;3.60;1.20;;;;;;;16.91;54.74;101565.47;5032558;28;20116;-42
2021/09/29 12:45:10;;;;;;;4.97;1.13;;;;;;;16.62;54.17;101551.13;5032515;28;20123;-42
2021/09/29 12:47:38;;;;;;;7.03;1.00;;;;;;;16.76;54.72;101554.72;5032431;28;20037;-42
2021/09/29 12:50:22;;;;;;;6.65;1.15;;;;;;;17.45;52.24;101551.66;5032444;28;20136;-42
2021/09/29 12:52:58;;;;;;;5.28;0.80;;;;;;;17.92;51.55;101557.09;5030876;28;20480;-42
2021/09/29 12:55:32;;;;;;;2.47;0.83;;;;;;;17.65;52.27;101565.28;5031556;28;20400;-43
2021/09/29 12:57:58;;;;;;;2.95;0.90;;;;;;;17.19;51.80;101560.66;5032073;28;20026;-42
2021/09/29 13:00:23;;;;;;;4.90;1.40;;;;;;;17.03;52.51;101572.78;5032256;28;20155;-43
2021/09/29 13:02:49;;;;;;;3.90;0.90;;;;;;;17.21;52.96;101568.63;5031008;28;20124;-41
2021/09/29 13:05:14;;;;;;;4.53;1.00;;;;;;;17.50;52.60;101570.94;5031328;28;20029;-41
2021/09/29 13:07:39;;;;;;;5.25;1.30;;;;;;;17.93;50.68;101575.09;5040714;28;20871;-42
2021/09/29 13:10:05;;;;;;;7.72;1.23;;;;;;;17.97;50.94;101584.53;5031192;28;20033;-43
2021/09/29 13:12:30;;;;;;;4.50;0.98;;;;;;;18.42;49.62;101587.31;5030321;28;20032;-42
2021/09/29 13:14:56;;;;;;;3.60;0.82;;;;;;;18.03;49.68;101591.00;5036768;28;20152;-43
2021/09/29 13:17:21;;;;;;;4.68;1.38;;;;;;;17.70;53.12;101600.03;5023031;28;20141;-41
2021/09/29 13:19:58;;;;;;;3.80;1.00;;;;;;;17.15;53.83;101597.50;5028549;28;20037;-43
2021/09/29 13:22:25;;;;;;;4.20;1.25;;;;;;;16.94;52.68;101594.94;5031033;28;20085;-42
2021/09/29 13:38:06;;;;;;;6.47;1.23;;;;;;;15.59;55.17;101630.53;5022134;28;20316;-41
2021/09/29 13:40:31;;;;;;;4.20;1.10;;;;;;;15.85;54.40;101639.97;5029730;28;20033;-41
2021/09/29 13:42:57;;;;;;;6.97;1.25;;;;;;;16.15;55.50;101629.69;5031519;28;20056;-42
2021/09/29 13:45:23;;;;;;;3.15;0.90;;;;;;;16.43;53.00;101626.09;5031961;28;20076;-42
2021/09/29 13:47:48;;;;;;;4.25;1.23;;;;;;;16.92;51.74;101640.53;5031689;28;20246;-40
2021/09/29 13:50:15;;;;;;;3.88;1.08;;;;;;;16.80;50.91;101652.00;5030554;28;20224;-42
2021/09/29 13:52:40;;;;;;;4.55;0.85;;;;;;;16.80;52.73;101649.28;5031007;28;20029;-41
2021/09/29 13:55:09;;;;;;;5.57;1.00;;;;;;;17.10;51.52;101632.63;5030116;28;20029;-41
2021/09/29 13:57:43;;;;;;;1.27;0.75;;;;;;;17.09;49.53;101647.28;5032716;28;20108;-40